Time;durP1;ratioP1;P1;durP2;ratioP2;P2;SDS_P1;SDS_P2;PMS_P1;PMS_P2;Temp;Humidity;BMP_temperature;BMP_pressure;BME280_temperature;BME280_humidity;BME280_pressure;Samples;Min_cycle;Max_cycle;Signal;HPM_P1;HPM_P2
2021/09/13 00:00:35;;;;;;;13.88;9.02;;;;;;;13.35;80.05;100690.75;8546790;34;20240;-73
2021/09/13 00:05:39;;;;;;;13.93;9.38;;;;;;;13.21;80.70;100685.72;8545883;34;20186;-72
2021/09/13 00:10:46;;;;;;;14.52;10.07;;;;;;;13.22;80.63;100682.06;8546508;34;20660;-73
2021/09/13 00:15:50;;;;;;;14.40;9.85;;;;;;;13.16;80.60;100691.50;8546273;34;20277;-72
2021/09/13 00:20:54;;;;;;;16.17;9.48;;;;;;;13.18;80.37;100699.47;8545745;34;20197;-73
2021/09/13 00:25:58;;;;;;;13.85;10.13;;;;;;;13.13;80.09;100694.47;8544879;34;20204;-72
2021/09/13 00:31:03;;;;;;;15.90;10.13;;;;;;;13.17;80.38;100700.47;8545284;34;20185;-73
2021/09/13 00:36:08;;;;;;;12.27;8.40;;;;;;;13.16;80.63;100696.91;8544135;34;20192;-73
2021/09/13 00:41:12;;;;;;;13.02;8.20;;;;;;;13.14;80.36;100695.34;8544711;34;20832;-73
2021/09/13 00:46:18;;;;;;;13.05;7.82;;;;;;;13.05;80.59;100694.28;8544703;34;20457;-73
2021/09/13 00:51:21;;;;;;;12.32;7.22;;;;;;;13.00;80.51;100694.72;8543402;34;20257;-73
2021/09/13 00:56:24;;;;;;;9.63;7.43;;;;;;;12.98;80.55;100685.88;8543145;34;21678;-73
2021/09/13 01:01:29;;;;;;;9.55;6.35;;;;;;;12.95;80.41;100683.47;8543255;34;20178;-73
2021/09/13 01:06:33;;;;;;;10.60;7.72;;;;;;;12.88;80.74;100682.25;8542746;34;20197;-73
2021/09/13 01:11:36;;;;;;;11.55;6.72;;;;;;;12.77;81.06;100685.88;8543289;34;20162;-73
2021/09/13 01:16:41;;;;;;;9.50;7.13;;;;;;;12.68;80.96;100689.38;8542577;34;20197;-72
2021/09/13 01:21:46;;;;;;;10.15;6.93;;;;;;;12.68;80.89;100685.84;8539002;33;20154;-73
2021/09/13 01:26:51;;;;;;;8.90;7.07;;;;;;;12.70;81.15;100684.72;8540613;33;21127;-73
2021/09/13 01:32:00;;;;;;;9.73;6.63;;;;;;;12.78;80.51;100695.69;8541439;33;20158;-73
2021/09/13 01:37:08;;;;;;;11.18;6.07;;;;;;;12.77;80.08;100693.97;8539238;33;20182;-73
2021/09/13 01:42:14;;;;;;;9.18;6.78;;;;;;;12.75;79.65;100697.78;8542569;33;20290;-73
2021/09/13 01:47:17;;;;;;;9.52;5.45;;;;;;;12.60;80.13;100694.56;8542233;33;21675;-73
2021/09/13 01:52:24;;;;;;;8.40;6.15;;;;;;;12.45;80.32;100695.84;8557840;33;20221;-73
2021/09/13 01:57:28;;;;;;;7.60;6.15;;;;;;;12.32;80.91;100701.41;8569548;33;21022;-73
2021/09/13 02:02:32;;;;;;;10.68;6.03;;;;;;;12.31;81.38;100705.97;8570582;33;20182;-73
2021/09/13 02:07:35;;;;;;;7.43;5.75;;;;;;;12.38;81.34;100700.91;8570034;33;20267;-73
2021/09/13 02:12:40;;;;;;;9.43;5.90;;;;;;;12.35;80.38;100699.31;8569767;33;20182;-73
2021/09/13 02:17:45;;;;;;;7.68;5.80;;;;;;;12.28;80.58;100710.69;8569682;33;20186;-72
2021/09/13 02:22:49;;;;;;;8.02;5.40;;;;;;;12.29;80.53;100707.91;8569808;33;20538;-72
2021/09/13 02:27:55;;;;;;;10.10;6.20;;;;;;;12.26;80.96;100701.88;8545943;33;20146;-72
2021/09/13 02:32:58;;;;;;;8.52;5.72;;;;;;;12.26;80.79;100699.19;8548464;33;20268;-73
2021/09/13 02:38:04;;;;;;;8.73;5.53;;;;;;;12.22;80.78;100695.06;8545798;33;20186;-73
2021/09/13 02:43:09;;;;;;;10.05;5.65;;;;;;;12.17;81.00;100700.81;8546053;33;20276;-73
2021/09/13 02:48:12;;;;;;;7.68;5.57;;;;;;;12.15;80.98;100694.72;8547208;33;20151;-73
2021/09/13 02:53:17;;;;;;;8.00;5.38;;;;;;;12.06;80.84;100701.69;8546004;33;20193;-73
2021/09/13 02:58:21;;;;;;;7.93;5.70;;;;;;;12.00;81.45;100704.91;8568123;33;20628;-73
2021/09/13 03:03:27;;;;;;;11.90;6.18;;;;;;;12.05;81.39;100694.59;8568437;33;21564;-73
2021/09/13 03:08:31;;;;;;;8.65;5.10;;;;;;;12.05;80.71;100704.53;8567958;33;20230;-72
2021/09/13 03:13:36;;;;;;;9.48;4.90;;;;;;;12.01;80.63;100709.28;8568653;33;20241;-73
2021/09/13 03:18:40;;;;;;;5.95;4.32;;;;;;;12.01;80.30;100708.44;8568484;33;20194;-72
2021/09/13 03:23:44;;;;;;;6.15;4.30;;;;;;;12.05;80.22;100700.00;8545376;33;20190;-73
2021/09/13 03:28:49;;;;;;;6.72;4.90;;;;;;;12.11;79.58;100702.16;8544901;33;20145;-72
2021/09/13 03:33:52;;;;;;;10.05;4.80;;;;;;;11.98;79.00;100700.63;8545527;33;20446;-73
2021/09/13 03:38:56;;;;;;;8.15;5.22;;;;;;;12.05;79.38;100701.84;8545235;33;21667;-73
2021/09/13 03:44:01;;;;;;;7.38;5.35;;;;;;;12.12;79.03;100698.50;8568544;33;20448;-73
2021/09/13 03:49:07;;;;;;;9.55;5.63;;;;;;;12.08;79.14;100710.50;8545410;33;20147;-73
2021/09/13 03:54:11;;;;;;;7.38;5.10;;;;;;;12.16;78.91;100699.09;8566978;33;20189;-73
2021/09/13 03:59:16;;;;;;;7.45;5.60;;;;;;;12.12;78.91;100698.50;8572881;33;20158;-73
2021/09/13 04:04:24;;;;;;;6.53;4.93;;;;;;;12.05;78.70;100701.84;8571896;33;20855;-73
2021/09/13 04:15:24;;;;;;;7.55;5.85;;;;;;;11.85;79.08;100695.41;8546198;33;20189;-73
2021/09/13 04:20:56;;;;;;;7.28;5.25;;;;;;;11.71;79.26;100692.00;8504037;33;20553;-73
2021/09/13 04:26:14;;;;;;;8.25;5.40;;;;;;;11.64;79.95;100690.75;8574239;33;20284;-73
2021/09/13 04:31:38;;;;;;;7.80;5.30;;;;;;;11.68;80.06;100694.06;8553149;33;20189;-73
2021/09/13 04:37:00;;;;;;;7.30;5.55;;;;;;;11.63;80.40;100688.22;8552857;33;20611;-73
2021/09/13 04:42:35;;;;;;;10.18;5.97;;;;;;;11.65;80.43;100695.16;8545425;33;20211;-73
2021/09/13 04:47:59;;;;;;;9.75;6.65;;;;;;;11.74;80.45;100698.97;8544610;33;20182;-72
2021/09/13 04:53:15;;;;;;;13.82;7.28;;;;;;;11.79;80.07;100696.72;8566145;33;20182;-73
2021/09/13 04:58:18;;;;;;;12.65;8.45;;;;;;;11.89;80.52;100703.09;8565760;33;20182;-72
2021/09/13 05:03:23;;;;;;;13.93;8.73;;;;;;;12.10;79.99;100711.25;8566233;33;20780;-73
2021/09/13 05:08:27;;;;;;;9.95;6.47;;;;;;;12.15;79.40;100703.66;8566143;33;20260;-72
2021/09/13 05:13:34;;;;;;;10.02;5.90;;;;;;;12.30;78.74;100712.31;8542866;33;20604;-73
2021/09/13 05:18:41;;;;;;;11.23;6.25;;;;;;;12.39;78.10;100718.75;8564780;33;20679;-72
2021/09/13 05:23:44;;;;;;;11.90;6.80;;;;;;;12.47;78.20;100720.81;8544188;33;20189;-73
2021/09/13 05:28:47;;;;;;;7.97;5.68;;;;;;;12.62;78.09;100716.84;8542260;33;21400;-72
2021/09/13 05:33:52;;;;;;;10.10;6.43;;;;;;;12.70;77.64;100727.84;8542534;33;20250;-72
2021/09/13 05:38:55;;;;;;;7.25;5.85;;;;;;;12.76;77.22;100737.25;8564404;33;20188;-73
2021/09/13 05:44:16;;;;;;;10.68;6.85;;;;;;;12.92;77.00;100732.25;8565210;33;20441;-73
2021/09/13 05:49:21;;;;;;;7.72;5.25;;;;;;;12.95;77.17;100737.38;8544406;33;20133;-73
2021/09/13 05:54:26;;;;;;;9.82;5.35;;;;;;;13.41;76.66;100737.97;8544681;33;20432;-73
2021/09/13 05:59:30;;;;;;;7.72;5.22;;;;;;;13.36;76.55;100741.03;8576065;33;20143;-73
2021/09/13 06:04:39;;;;;;;8.32;5.95;;;;;;;13.55;75.57;100742.16;8565779;33;20174;-73
2021/09/13 06:09:43;;;;;;;11.25;7.40;;;;;;;13.48;75.26;100744.53;8565429;33;20150;-73
2021/09/13 06:14:47;;;;;;;11.25;8.15;;;;;;;13.17;75.76;100763.38;8564101;33;20671;-72
2021/09/13 06:19:51;;;;;;;11.90;8.10;;;;;;;13.06;76.78;100768.84;8565088;33;21011;-72
2021/09/13 06:24:55;;;;;;;10.38;6.47;;;;;;;13.01;77.78;100768.38;8541811;33;20767;-72
2021/09/13 06:29:59;;;;;;;8.25;6.65;;;;;;;13.17;77.49;100762.53;8564315;33;20186;-73
2021/09/13 06:35:04;;;;;;;11.45;7.03;;;;;;;13.24;77.30;100769.94;8566133;33;20879;-73
2021/09/13 06:40:29;;;;;;;12.10;7.47;;;;;;;13.47;77.68;100773.38;8489880;34;20143;-73
2021/09/13 06:45:40;;;;;;;17.90;9.55;;;;;;;13.42;77.29;100767.53;8490346;34;20148;-73
2021/09/13 06:50:46;;;;;;;12.60;8.65;;;;;;;13.47;77.50;100770.69;8546261;33;20712;-73
2021/09/13 06:55:49;;;;;;;17.13;9.05;;;;;;;13.34;78.11;100780.78;8546466;33;20231;-74
2021/09/13 07:00:54;;;;;;;14.38;8.52;;;;;;;13.41;78.77;100783.84;8546949;33;20454;-73
2021/09/13 07:05:59;;;;;;;16.33;9.18;;;;;;;13.71;78.38;100783.00;8546342;33;20468;-73
2021/09/13 07:11:05;;;;;;;14.68;7.20;;;;;;;13.99;77.59;100791.34;8546028;33;20276;-73
2021/09/13 07:16:08;;;;;;;15.77;7.50;;;;;;;14.15;76.76;100787.16;8545633;33;20185;-73
2021/09/13 07:21:13;;;;;;;14.43;8.15;;;;;;;13.98;76.78;100787.78;8546665;33;20158;-73
2021/09/13 07:26:16;;;;;;;17.13;8.25;;;;;;;13.98;76.86;100789.66;8546269;33;20386;-74
2021/09/13 07:31:19;;;;;;;17.42;9.18;;;;;;;13.90;77.14;100793.03;8546300;33;20518;-73
2021/09/13 07:36:24;;;;;;;19.90;9.55;;;;;;;13.82;77.91;100801.84;8545091;33;20158;-73
2021/09/13 07:41:27;;;;;;;18.83;10.38;;;;;;;13.53;79.11;100807.06;8545891;33;20186;-74
2021/09/13 07:46:30;;;;;;;16.15;8.52;;;;;;;13.59;78.81;100819.19;8546229;33;20304;-73
2021/09/13 07:51:35;;;;;;;17.55;8.85;;;;;;;13.86;78.40;100827.56;8544404;33;20212;-73
2021/09/13 07:56:38;;;;;;;17.88;9.57;;;;;;;14.15;77.32;100826.81;8545033;33;20711;-73
2021/09/13 08:01:41;;;;;;;17.35;9.00;;;;;;;13.88;77.49;100822.03;8546542;33;20190;-73
2021/09/13 08:06:49;;;;;;;15.27;8.68;;;;;;;13.79;78.60;100841.72;8545891;33;20154;-73
2021/09/13 08:11:52;;;;;;;11.40;6.22;;;;;;;13.53;78.86;100849.41;8540756;33;20189;-73
2021/09/13 08:16:57;;;;;;;10.82;6.30;;;;;;;13.44;78.50;100843.81;8529935;33;20845;-72
2021/09/13 08:22:01;;;;;;;16.42;9.10;;;;;;;13.12;80.42;100843.81;8517131;33;20206;-73
2021/09/13 08:27:05;;;;;;;11.93;7.07;;;;;;;14.11;77.62;100847.84;8532488;33;20697;-73
2021/09/13 08:32:08;;;;;;;14.27;7.90;;;;;;;14.15;76.39;100856.53;8544136;33;20171;-73
2021/09/13 08:37:13;;;;;;;11.80;7.10;;;;;;;14.15;76.18;100867.31;8544268;33;20182;-73
2021/09/13 08:42:17;;;;;;;14.88;8.30;;;;;;;14.41;75.29;100870.47;8545390;33;20645;-74
2021/09/13 08:47:24;;;;;;;9.82;6.00;;;;;;;14.01;76.18;100873.94;8544756;33;22250;-73
2021/09/13 08:52:29;;;;;;;10.63;7.30;;;;;;;14.20;75.82;100869.63;8543767;33;20234;-73
2021/09/13 08:57:33;;;;;;;13.25;6.65;;;;;;;14.28;75.29;100870.66;8544267;33;20209;-73
2021/09/13 09:02:39;;;;;;;11.88;7.10;;;;;;;14.35;74.98;100882.66;8544990;33;20561;-73
2021/09/13 09:07:53;;;;;;;10.23;5.65;;;;;;;14.47;74.52;100886.13;8539396;33;20190;-73
2021/09/13 09:13:03;;;;;;;11.68;6.30;;;;;;;14.51;74.64;100892.97;8543320;34;20888;-73
2021/09/13 09:18:06;;;;;;;8.65;5.95;;;;;;;15.08;73.55;100904.03;8541121;34;21599;-73
2021/09/13 09:23:11;;;;;;;9.13;5.95;;;;;;;15.14;72.15;100910.72;8540307;34;20245;-72
2021/09/13 09:28:16;;;;;;;8.20;5.55;;;;;;;15.42;71.76;100918.03;8541524;34;22188;-74
2021/09/13 09:33:22;;;;;;;8.65;5.80;;;;;;;15.76;69.26;100920.28;8543715;34;21508;-74
2021/09/13 09:38:36;;;;;;;9.00;5.65;;;;;;;16.06;68.37;100910.22;8544075;34;22158;-73
2021/09/13 09:43:52;;;;;;;7.97;5.05;;;;;;;15.19;70.01;100911.16;8543820;34;20214;-72
2021/09/13 09:49:05;;;;;;;8.25;4.97;;;;;;;15.46;70.63;100899.66;8543649;34;20248;-73
2021/09/13 09:54:13;;;;;;;9.88;5.28;;;;;;;16.09;69.30;100913.47;8543091;34;20471;-72
2021/09/13 09:59:17;;;;;;;6.20;4.85;;;;;;;16.18;67.12;100902.75;8542468;33;20577;-72
2021/09/13 10:04:24;;;;;;;6.07;4.25;;;;;;;16.67;64.35;100893.41;8538210;34;20190;-73
2021/09/13 10:09:30;;;;;;;7.55;4.20;;;;;;;17.11;64.13;100900.84;8545228;34;20264;-73
2021/09/13 10:14:34;;;;;;;9.18;4.25;;;;;;;17.25;63.46;100900.31;8548390;34;20181;-73
2021/09/13 10:19:38;;;;;;;5.18;3.90;;;;;;;17.09;64.90;100900.16;8548697;34;20208;-73
2021/09/13 10:24:48;;;;;;;7.68;3.92;;;;;;;17.55;64.07;100895.50;8547832;34;20292;-72
2021/09/13 10:30:12;;;;;;;3.55;2.83;;;;;;;17.59;61.07;100895.03;8548053;34;20193;-71
2021/09/13 10:35:18;;;;;;;3.78;3.20;;;;;;;18.22;59.68;100877.63;8547448;34;20181;-73
2021/09/13 10:40:29;;;;;;;5.35;3.28;;;;;;;17.65;61.63;100860.94;8548325;34;20170;-73
2021/09/13 10:45:42;;;;;;;4.90;3.33;;;;;;;18.77;57.55;100859.97;8547661;34;20292;-73
2021/09/13 10:50:48;;;;;;;5.90;2.95;;;;;;;18.99;56.96;100862.06;8547788;34;20618;-73
2021/09/13 10:55:55;;;;;;;4.28;3.60;;;;;;;19.04;56.85;100858.88;8546773;34;20297;-74
2021/09/13 11:01:05;;;;;;;6.93;3.65;;;;;;;20.21;53.84;100862.97;8547128;34;20688;-71
2021/09/13 11:06:38;;;;;;;3.70;3.00;;;;;;;22.13;49.45;100850.34;8544795;34;20194;-73
2021/09/13 11:11:45;;;;;;;3.95;3.00;;;;;;;22.36;48.15;100842.03;8546613;34;20301;-73
2021/09/13 11:16:52;;;;;;;3.30;2.92;;;;;;;22.71;46.38;100833.00;8545824;34;20194;-73
2021/09/13 11:21:58;;;;;;;3.72;2.70;;;;;;;24.07;43.89;100844.75;8544242;33;21768;-73
2021/09/13 11:27:06;;;;;;;3.58;2.80;;;;;;;23.77;44.39;100833.16;8545639;33;21114;-73
2021/09/13 11:32:12;;;;;;;3.55;2.80;;;;;;;24.32;44.13;100828.59;8545886;33;20623;-73
2021/09/13 11:37:19;;;;;;;4.40;3.17;;;;;;;25.63;41.97;100824.66;8545204;34;20229;-73
2021/09/13 11:42:45;;;;;;;4.55;2.60;;;;;;;25.67;40.90;100814.09;8544994;34;20224;-73
2021/09/13 11:47:49;;;;;;;3.45;2.55;;;;;;;26.12;41.21;100812.31;8545012;34;20186;-73
2021/09/13 11:52:53;;;;;;;4.80;2.95;;;;;;;25.98;40.93;100802.41;8545322;34;20252;-72
2021/09/13 11:58:00;;;;;;;4.05;2.83;;;;;;;25.99;41.70;100804.09;8544734;34;20868;-72
2021/09/13 12:03:07;;;;;;;3.22;2.92;;;;;;;25.70;42.94;100810.91;8545171;34;20679;-72
2021/09/13 12:08:15;;;;;;;5.95;2.78;;;;;;;25.32;42.62;100809.66;8545461;34;20178;-73
2021/09/13 12:13:22;;;;;;;3.65;2.80;;;;;;;25.33;42.58;100805.84;8544220;33;20281;-73
2021/09/13 12:18:31;;;;;;;2.70;2.50;;;;;;;26.81;39.75;100801.63;8539809;33;20147;-73
2021/09/13 12:23:39;;;;;;;2.42;2.22;;;;;;;26.52;39.99;100798.38;8542265;33;20284;-73
2021/09/13 12:28:48;;;;;;;2.95;2.53;;;;;;;25.41;41.90;100802.88;8540330;33;20189;-73
2021/09/13 12:33:51;;;;;;;4.55;2.30;;;;;;;25.47;40.50;100797.59;8542594;33;20841;-73
2021/09/13 12:38:57;;;;;;;3.58;2.50;;;;;;;26.34;39.79;100790.03;8542493;33;20182;-73
2021/09/13 12:44:14;;;;;;;2.80;2.55;;;;;;;25.07;42.33;100797.63;8541383;33;20190;-72
2021/09/13 12:49:17;;;;;;;2.33;1.92;;;;;;;23.93;43.94;100792.75;8545552;34;20343;-73
2021/09/13 12:54:29;;;;;;;3.50;1.92;;;;;;;23.27;44.04;100788.47;8543608;34;21572;-74
2021/09/13 12:59:33;;;;;;;3.00;1.50;;;;;;;22.74;45.49;100786.06;8544116;34;21673;-72
2021/09/13 13:04:39;;;;;;;1.55;1.40;;;;;;;23.11;44.43;100777.81;8544071;34;20178;-73
2021/09/13 13:09:43;;;;;;;3.72;2.53;;;;;;;22.92;44.95;100768.31;8545044;34;20209;-73
2021/09/13 13:14:48;;;;;;;1.90;1.80;;;;;;;22.75;46.26;100765.00;8544600;34;20646;-72
2021/09/13 13:19:51;;;;;;;1.67;1.58;;;;;;;22.43;45.57;100761.72;8543977;34;20309;-72
2021/09/13 13:24:54;;;;;;;2.42;1.63;;;;;;;22.17;46.50;100761.38;8543012;33;20232;-73
2021/09/13 13:30:05;;;;;;;2.53;1.70;;;;;;;22.10;45.77;100756.69;8543576;33;20245;-72
2021/09/13 13:35:09;;;;;;;2.05;1.70;;;;;;;22.53;46.46;100750.47;8543387;33;20201;-73
2021/09/13 13:40:13;;;;;;;2.15;1.77;;;;;;;25.03;40.63;100744.13;8544023;33;20469;-73
2021/09/13 13:45:18;;;;;;;1.38;1.27;;;;;;;24.18;41.96;100743.69;8546984;33;20227;-73
2021/09/13 13:50:22;;;;;;;2.22;1.52;;;;;;;23.11;44.57;100739.44;8547718;33;21194;-73
2021/09/13 13:55:26;;;;;;;3.30;1.90;;;;;;;22.33;46.15;100740.13;8568831;33;20177;-73
2021/09/13 14:00:30;;;;;;;2.05;1.83;;;;;;;22.27;47.99;100740.03;8548701;33;20181;-73
2021/09/13 14:05:34;;;;;;;2.30;1.75;;;;;;;22.15;46.68;100738.84;8547830;33;20703;-73
2021/09/13 14:10:38;;;;;;;1.60;1.50;;;;;;;21.83;47.54;100728.16;8547613;33;20254;-73
2021/09/13 14:15:42;;;;;;;3.28;2.00;;;;;;;21.48;47.86;100737.09;8546641;33;20940;-74
2021/09/13 14:20:46;;;;;;;2.65;1.70;;;;;;;21.25;47.67;100727.03;8547583;33;20319;-73
2021/09/13 14:25:49;;;;;;;2.03;1.42;;;;;;;21.31;47.96;100728.19;8545851;33;20190;-73
2021/09/13 14:30:53;;;;;;;1.52;1.42;;;;;;;21.96;47.10;100716.50;8490714;34;20198;-73
2021/09/13 14:35:57;;;;;;;2.40;1.65;;;;;;;22.05;47.42;100722.72;8492859;34;20247;-73
2021/09/13 14:41:01;;;;;;;1.48;1.38;;;;;;;22.13;45.87;100710.81;8499499;34;20220;-73
2021/09/13 14:46:05;;;;;;;2.05;1.48;;;;;;;23.20;44.32;100708.09;8544990;33;20538;-74
2021/09/13 14:51:09;;;;;;;1.38;1.27;;;;;;;24.20;39.72;100717.72;8546000;34;20194;-73
2021/09/13 14:56:12;;;;;;;1.60;1.40;;;;;;;24.60;38.56;100714.25;8543665;33;20277;-73
2021/09/13 15:01:17;;;;;;;2.22;1.30;;;;;;;24.48;38.37;100714.88;8544256;33;20190;-73
2021/09/13 15:06:21;;;;;;;1.42;0.90;;;;;;;22.88;40.73;100702.16;8543650;33;20420;-73
2021/09/13 15:11:24;;;;;;;2.25;1.17;;;;;;;22.05;42.33;100701.72;8541399;33;20221;-73
2021/09/13 15:16:29;;;;;;;1.13;1.02;;;;;;;22.46;41.16;100689.31;8543835;33;20559;-72
2021/09/13 15:21:32;;;;;;;1.30;1.20;;;;;;;22.24;42.16;100693.91;8543994;33;20242;-72
2021/09/13 15:26:35;;;;;;;1.02;0.95;;;;;;;22.53;42.04;100688.34;8544302;34;20225;-73
2021/09/13 15:31:39;;;;;;;1.38;1.27;;;;;;;23.09;41.20;100684.84;8543638;33;20194;-72
2021/09/13 15:36:43;;;;;;;1.90;1.20;;;;;;;23.22;40.68;100673.13;8542062;33;20205;-72
2021/09/13 15:41:47;;;;;;;1.17;1.10;;;;;;;23.46;41.93;100674.53;8543190;33;20186;-72
2021/09/13 15:46:54;;;;;;;1.95;1.20;;;;;;;23.22;41.01;100670.38;8542143;33;20193;-72
2021/09/13 15:51:57;;;;;;;0.90;0.90;;;;;;;22.75;41.00;100663.69;8539982;33;20155;-72
2021/09/13 15:57:01;;;;;;;2.47;1.35;;;;;;;22.77;43.05;100656.13;8541836;33;20196;-72
2021/09/13 16:02:05;;;;;;;1.58;1.27;;;;;;;22.45;46.30;100663.84;8542385;33;20196;-73
2021/09/13 16:07:09;;;;;;;1.42;1.33;;;;;;;21.96;47.14;100660.97;8542341;33;20543;-73
2021/09/13 16:12:12;;;;;;;1.63;1.30;;;;;;;21.46;47.83;100652.53;8544619;34;20157;-73
2021/09/13 16:17:20;;;;;;;1.60;1.40;;;;;;;20.97;49.57;100659.34;8543701;34;20196;-73
2021/09/13 16:22:24;;;;;;;2.60;1.40;;;;;;;20.56;49.99;100656.16;8545116;34;20197;-72
2021/09/13 16:27:28;;;;;;;2.40;1.50;;;;;;;20.30;51.57;100661.97;8543638;34;20190;-72
2021/09/13 16:32:32;;;;;;;2.17;1.40;;;;;;;19.89;51.81;100663.06;8544703;34;20367;-73
2021/09/13 16:37:35;;;;;;;2.83;1.70;;;;;;;19.60;52.81;100662.88;8543173;33;20629;-74
2021/09/13 16:42:38;;;;;;;2.67;1.63;;;;;;;19.40;53.87;100656.97;8539307;33;20663;-73
2021/09/13 16:47:44;;;;;;;1.77;1.55;;;;;;;19.16;55.22;100655.16;8541989;33;20174;-73
2021/09/13 16:52:47;;;;;;;1.95;1.50;;;;;;;18.95;55.93;100651.13;8542777;33;20165;-73
2021/09/13 16:57:50;;;;;;;1.83;1.73;;;;;;;18.81;57.24;100651.81;8538234;33;20690;-73
2021/09/13 17:02:55;;;;;;;1.45;1.35;;;;;;;18.54;58.00;100659.28;8542463;33;20660;-73
2021/09/13 17:07:58;;;;;;;5.22;2.45;;;;;;;18.33;58.44;100667.94;8542596;33;20162;-72
2021/09/13 17:13:01;;;;;;;2.88;1.40;;;;;;;18.21;58.76;100663.84;8542047;33;20197;-72
2021/09/13 17:18:06;;;;;;;1.77;1.67;;;;;;;18.06;58.31;100669.06;8543281;33;20172;-73
2021/09/13 17:23:09;;;;;;;3.42;1.70;;;;;;;17.87;59.45;100659.31;8543134;33;20683;-73
2021/09/13 17:28:12;;;;;;;1.88;1.70;;;;;;;17.55;60.82;100659.19;8544092;33;20437;-73
2021/09/13 17:33:17;;;;;;;1.70;1.60;;;;;;;17.26;62.02;100655.00;8547274;33;20982;-73
2021/09/13 17:38:20;;;;;;;1.70;1.60;;;;;;;17.10;62.23;100660.31;8542936;33;20182;-73
2021/09/13 17:43:24;;;;;;;3.40;1.80;;;;;;;16.96;63.02;100670.72;8544139;33;20467;-72
2021/09/13 17:48:28;;;;;;;1.92;1.73;;;;;;;16.83;63.79;100664.88;8544354;33;20244;-73
2021/09/13 17:53:31;;;;;;;2.90;1.90;;;;;;;16.71;64.08;100671.56;8544611;33;20258;-73
2021/09/13 17:58:35;;;;;;;2.20;1.77;;;;;;;16.54;64.61;100657.88;8543454;33;21970;-73
2021/09/13 18:03:40;;;;;;;3.42;2.03;;;;;;;16.46;65.11;100659.66;8543396;33;20284;-73
2021/09/13 18:08:43;;;;;;;1.90;1.77;;;;;;;16.42;65.06;100661.81;8543531;33;20707;-72
2021/09/13 18:13:46;;;;;;;3.38;1.90;;;;;;;16.38;64.79;100673.16;8543272;34;20245;-72
2021/09/13 18:18:53;;;;;;;2.53;2.30;;;;;;;16.33;64.78;100671.75;8543048;34;22189;-72
2021/09/13 18:23:58;;;;;;;2.45;2.05;;;;;;;16.20;65.37;100678.50;8543358;34;20659;-71
2021/09/13 18:29:01;;;;;;;4.88;2.30;;;;;;;16.12;65.59;100676.56;8543884;34;20185;-72
2021/09/13 18:34:06;;;;;;;3.10;2.00;;;;;;;16.15;66.11;100677.13;8547768;34;20470;-72
2021/09/13 18:39:09;;;;;;;3.80;1.75;;;;;;;16.05;66.47;100684.47;8549006;34;20240;-71
2021/09/13 18:44:12;;;;;;;3.15;2.00;;;;;;;15.84;66.83;100678.47;8548818;34;20153;-72
2021/09/13 18:49:17;;;;;;;3.00;2.35;;;;;;;15.76;67.23;100673.81;8550518;34;20174;-71
2021/09/13 18:54:20;;;;;;;2.97;2.25;;;;;;;15.75;67.49;100687.50;8548090;34;20709;-72
2021/09/13 18:59:23;;;;;;;4.07;3.03;;;;;;;15.69;67.49;100684.41;8547870;34;20233;-71
2021/09/13 19:04:27;;;;;;;5.10;2.50;;;;;;;15.71;67.61;100686.94;8548052;34;20300;-71
2021/09/13 19:09:30;;;;;;;3.17;2.53;;;;;;;15.62;67.95;100687.84;8547848;34;20246;-72
2021/09/13 19:14:33;;;;;;;3.80;2.55;;;;;;;15.52;68.13;100690.59;8547229;34;20193;-72
2021/09/13 19:19:40;;;;;;;4.22;2.75;;;;;;;15.53;68.60;100696.88;8547352;34;20273;-71
2021/09/13 19:24:43;;;;;;;6.00;2.97;;;;;;;15.52;68.81;100695.16;8547041;34;20241;-71
2021/09/13 19:29:46;;;;;;;5.10;3.80;;;;;;;15.49;68.85;100699.00;8546851;34;21640;-71
2021/09/13 19:34:51;;;;;;;3.72;3.20;;;;;;;15.41;69.16;100701.59;8545730;34;20271;-72
2021/09/13 19:39:54;;;;;;;3.95;3.08;;;;;;;15.36;69.34;100701.19;8546122;34;20961;-73
2021/09/13 19:45:00;;;;;;;6.47;3.75;;;;;;;15.33;70.00;100696.06;8545862;34;20495;-72
2021/09/13 19:50:06;;;;;;;5.78;3.70;;;;;;;15.35;70.10;100689.53;8546162;34;20555;-73
2021/09/13 19:55:10;;;;;;;4.13;3.55;;;;;;;15.26;70.19;100693.09;8545840;34;20168;-72
2021/09/13 20:00:14;;;;;;;5.47;3.63;;;;;;;15.24;70.38;100687.81;8544897;34;20512;-72
2021/09/13 20:05:19;;;;;;;5.15;3.67;;;;;;;15.19;70.42;100689.25;8545674;34;20253;-72
2021/09/13 20:10:23;;;;;;;4.85;3.40;;;;;;;15.13;70.92;100692.56;8545543;34;20232;-72
2021/09/13 20:15:27;;;;;;;7.25;3.60;;;;;;;15.00;71.23;100696.44;8544554;34;20189;-72
2021/09/13 20:20:33;;;;;;;5.53;3.42;;;;;;;14.93;71.57;100694.47;8544521;34;20217;-73
2021/09/13 20:25:38;;;;;;;5.35;3.47;;;;;;;14.93;71.85;100687.19;8543489;33;20236;-72
2021/09/13 20:30:42;;;;;;;6.70;3.50;;;;;;;14.79;71.75;100699.31;8543089;33;20161;-73
2021/09/13 20:35:46;;;;;;;6.28;4.03;;;;;;;14.47;73.26;100706.88;8542113;33;20205;-72
2021/09/13 20:40:50;;;;;;;5.50;3.40;;;;;;;14.29;74.07;100707.56;8498746;34;20220;-73
2021/09/13 20:45:53;;;;;;;5.82;4.28;;;;;;;14.24;74.33;100700.88;8544108;34;20186;-72
2021/09/13 20:50:58;;;;;;;6.93;3.60;;;;;;;14.20;74.50;100699.44;8544090;34;20209;-72
2021/09/13 20:56:02;;;;;;;6.75;3.47;;;;;;;14.15;74.50;100692.59;8543216;34;20221;-73
2021/09/13 21:01:05;;;;;;;6.00;3.38;;;;;;;14.14;74.26;100695.44;8544016;34;20186;-72
2021/09/13 21:06:12;;;;;;;6.15;3.90;;;;;;;14.07;74.74;100705.09;8543339;34;20145;-72
2021/09/13 21:11:16;;;;;;;8.40;4.25;;;;;;;14.03;74.55;100693.72;8543934;34;20776;-73
2021/09/13 21:16:21;;;;;;;7.18;3.97;;;;;;;13.99;74.77;100692.28;8542952;34;20868;-73
2021/09/13 21:21:26;;;;;;;5.75;3.67;;;;;;;13.96;74.78;100689.88;8543587;34;20484;-72
2021/09/13 21:26:29;;;;;;;6.30;3.53;;;;;;;13.92;74.78;100693.84;8543442;34;20142;-72
2021/09/13 21:31:37;;;;;;;5.47;3.70;;;;;;;14.00;74.99;100693.16;8544021;33;20198;-72
2021/09/13 21:36:41;;;;;;;5.28;3.33;;;;;;;13.92;74.60;100693.84;8542848;33;20279;-71
2021/09/13 21:41:44;;;;;;;6.55;3.80;;;;;;;14.00;74.93;100690.44;8542972;33;20572;-72
2021/09/13 21:46:48;;;;;;;5.32;4.25;;;;;;;13.97;74.52;100693.44;8542784;33;20303;-72
2021/09/13 21:51:52;;;;;;;5.10;3.45;;;;;;;13.83;74.20;100686.56;8543732;33;20181;-73
2021/09/13 21:56:55;;;;;;;4.57;3.47;;;;;;;13.67;74.72;100679.84;8543488;33;20130;-71
2021/09/13 22:01:58;;;;;;;7.85;3.90;;;;;;;13.60;75.03;100678.69;8542921;33;20844;-72
2021/09/13 22:07:03;;;;;;;6.55;3.78;;;;;;;13.53;75.48;100685.63;8545874;33;20194;-73
2021/09/13 22:12:07;;;;;;;5.95;3.67;;;;;;;13.51;75.58;100679.50;8548141;33;20653;-72
2021/09/13 22:17:11;;;;;;;6.82;4.15;;;;;;;13.53;75.91;100682.06;8546313;33;21020;-73
2021/09/13 22:22:15;;;;;;;5.00;4.20;;;;;;;13.48;75.60;100685.16;8523947;33;20651;-72
2021/09/13 22:27:19;;;;;;;9.00;4.53;;;;;;;13.40;75.92;100677.75;8516953;33;20194;-71
2021/09/13 22:32:22;;;;;;;6.50;3.95;;;;;;;13.35;76.27;100685.34;8543965;33;20276;-73
2021/09/13 22:37:26;;;;;;;6.63;4.22;;;;;;;13.32;76.01;100682.94;8545647;33;20224;-72
2021/09/13 22:42:30;;;;;;;6.72;4.68;;;;;;;13.33;76.08;100670.28;8547072;33;20245;-72
2021/09/13 22:47:33;;;;;;;7.57;4.32;;;;;;;13.24;75.84;100672.81;8546708;33;20743;-72
2021/09/13 22:52:37;;;;;;;8.38;4.90;;;;;;;13.16;76.09;100674.47;8547053;33;21076;-73
2021/09/13 22:57:41;;;;;;;7.20;4.28;;;;;;;13.10;76.06;100669.63;8546805;33;20506;-72
2021/09/13 23:02:44;;;;;;;7.25;4.75;;;;;;;13.04;76.38;100674.56;8549641;33;20224;-72
2021/09/13 23:07:52;;;;;;;6.50;4.20;;;;;;;13.03;76.25;100670.16;8546467;33;20154;-73
2021/09/13 23:12:55;;;;;;;7.18;4.28;;;;;;;13.00;76.35;100673.13;8546282;33;20190;-72
2021/09/13 23:17:58;;;;;;;5.45;4.00;;;;;;;12.91;77.03;100660.44;8545794;33;20461;-72
2021/09/13 23:23:05;;;;;;;6.35;4.30;;;;;;;12.69;78.07;100666.81;8546106;33;20784;-73
2021/09/13 23:28:09;;;;;;;5.55;4.38;;;;;;;12.67;77.87;100657.16;8545371;33;20734;-73
2021/09/13 23:33:13;;;;;;;7.25;4.65;;;;;;;12.64;77.43;100660.97;8566795;33;20190;-72
2021/09/13 23:38:18;;;;;;;7.18;4.53;;;;;;;12.57;77.33;100651.72;8545233;33;20201;-72
2021/09/13 23:43:22;;;;;;;8.10;4.72;;;;;;;12.54;77.81;100647.44;8545531;33;20189;-72